sensor_id;sensor_type;location;lat;lon;timestamp;P1;durP1;ratioP1;P2;durP2;ratioP2
11998;SDS011;40817;51.520;9.954;2023-11-19T00:00:39;2.00;;;1.17;;
11998;SDS011;40817;51.520;9.954;2023-11-19T00:03:07;2.90;;;1.25;;
11998;SDS011;40817;51.520;9.954;2023-11-19T00:05:37;1.55;;;1.00;;
11998;SDS011;40817;51.520;9.954;2023-11-19T00:08:04;1.88;;;0.80;;
11998;SDS011;40817;51.520;9.954;2023-11-19T00:10:33;1.52;;;1.00;;
11998;SDS011;40817;51.520;9.954;2023-11-19T00:13:01;3.85;;;0.95;;
11998;SDS011;40817;51.520;9.954;2023-11-19T00:15:29;1.58;;;0.90;;
11998;SDS011;40817;51.520;9.954;2023-11-19T00:17:56;2.22;;;1.00;;
11998;SDS011;40817;51.520;9.954;2023-11-19T00:20:24;2.30;;;1.02;;
11998;SDS011;40817;51.520;9.954;2023-11-19T00:22:52;1.20;;;0.90;;
11998;SDS011;40817;51.520;9.954;2023-11-19T00:25:20;1.58;;;0.90;;
11998;SDS011;40817;51.520;9.954;2023-11-19T00:27:47;1.00;;;0.70;;
11998;SDS011;40817;51.520;9.954;2023-11-19T00:30:15;1.65;;;0.88;;
11998;SDS011;40817;51.520;9.954;2023-11-19T00:32:43;3.42;;;0.80;;
11998;SDS011;40817;51.520;9.954;2023-11-19T00:35:10;1.33;;;0.90;;
11998;SDS011;40817;51.520;9.954;2023-11-19T00:37:39;1.77;;;1.00;;
11998;SDS011;40817;51.520;9.954;2023-11-19T00:40:09;1.00;;;0.70;;
11998;SDS011;40817;51.520;9.954;2023-11-19T00:42:37;1.10;;;0.77;;
11998;SDS011;40817;51.520;9.954;2023-11-19T00:45:05;1.52;;;0.82;;
11998;SDS011;40817;51.520;9.954;2023-11-19T00:47:35;1.25;;;0.70;;
11998;SDS011;40817;51.520;9.954;2023-11-19T00:50:02;1.48;;;0.82;;
11998;SDS011;40817;51.520;9.954;2023-11-19T00:52:30;1.10;;;0.90;;
11998;SDS011;40817;51.520;9.954;2023-11-19T00:54:57;1.13;;;0.60;;
11998;SDS011;40817;51.520;9.954;2023-11-19T00:57:26;1.80;;;1.00;;
11998;SDS011;40817;51.520;9.954;2023-11-19T00:59:53;1.50;;;0.70;;
11998;SDS011;40817;51.520;9.954;2023-11-19T01:02:20;0.90;;;0.68;;
11998;SDS011;40817;51.520;9.954;2023-11-19T01:04:48;1.08;;;0.60;;
11998;SDS011;40817;51.520;9.954;2023-11-19T01:07:15;0.75;;;0.50;;
11998;SDS011;40817;51.520;9.954;2023-11-19T01:09:43;0.52;;;0.50;;
11998;SDS011;40817;51.520;9.954;2023-11-19T01:12:10;0.70;;;0.50;;
11998;SDS011;40817;51.520;9.954;2023-11-19T01:14:39;0.52;;;0.30;;
11998;SDS011;40817;51.520;9.954;2023-11-19T01:17:06;0.70;;;0.40;;
11998;SDS011;40817;51.520;9.954;2023-11-19T01:19:34;0.50;;;0.35;;
11998;SDS011;40817;51.520;9.954;2023-11-19T01:22:01;0.40;;;0.40;;
11998;SDS011;40817;51.520;9.954;2023-11-19T01:24:28;0.70;;;0.38;;
11998;SDS011;40817;51.520;9.954;2023-11-19T01:26:56;0.20;;;0.20;;
11998;SDS011;40817;51.520;9.954;2023-11-19T01:29:25;0.30;;;0.30;;
11998;SDS011;40817;51.520;9.954;2023-11-19T01:31:53;0.95;;;0.40;;
11998;SDS011;40817;51.520;9.954;2023-11-19T01:34:21;0.45;;;0.30;;
11998;SDS011;40817;51.520;9.954;2023-11-19T01:36:48;2.72;;;0.50;;
11998;SDS011;40817;51.520;9.954;2023-11-19T01:39:15;0.80;;;0.40;;
11998;SDS011;40817;51.520;9.954;2023-11-19T01:41:44;0.50;;;0.35;;
11998;SDS011;40817;51.520;9.954;2023-11-19T01:44:12;1.33;;;0.30;;
11998;SDS011;40817;51.520;9.954;2023-11-19T01:46:40;1.25;;;0.50;;
11998;SDS011;40817;51.520;9.954;2023-11-19T01:49:09;0.70;;;0.40;;
11998;SDS011;40817;51.520;9.954;2023-11-19T01:51:37;0.30;;;0.20;;
11998;SDS011;40817;51.520;9.954;2023-11-19T01:54:05;0.30;;;0.30;;
11998;SDS011;40817;51.520;9.954;2023-11-19T01:56:34;0.93;;;0.40;;
11998;SDS011;40817;51.520;9.954;2023-11-19T01:59:03;0.40;;;0.40;;
11998;SDS011;40817;51.520;9.954;2023-11-19T02:01:31;2.97;;;0.40;;
11998;SDS011;40817;51.520;9.954;2023-11-19T02:04:01;0.50;;;0.43;;
11998;SDS011;40817;51.520;9.954;2023-11-19T02:06:30;1.15;;;0.52;;
11998;SDS011;40817;51.520;9.954;2023-11-19T02:09:00;0.50;;;0.40;;
11998;SDS011;40817;51.520;9.954;2023-11-19T02:11:32;0.60;;;0.40;;
11998;SDS011;40817;51.520;9.954;2023-11-19T02:14:00;0.47;;;0.20;;
11998;SDS011;40817;51.520;9.954;2023-11-19T02:16:28;0.60;;;0.30;;
11998;SDS011;40817;51.520;9.954;2023-11-19T02:18:56;1.67;;;0.40;;
11998;SDS011;40817;51.520;9.954;2023-11-19T02:21:23;0.55;;;0.40;;
11998;SDS011;40817;51.520;9.954;2023-11-19T02:23:52;0.90;;;0.50;;
11998;SDS011;40817;51.520;9.954;2023-11-19T02:26:22;0.60;;;0.40;;
11998;SDS011;40817;51.520;9.954;2023-11-19T02:29:00;0.45;;;0.35;;
11998;SDS011;40817;51.520;9.954;2023-11-19T02:31:28;0.47;;;0.30;;
11998;SDS011;40817;51.520;9.954;2023-11-19T02:33:56;0.60;;;0.30;;
11998;SDS011;40817;51.520;9.954;2023-11-19T02:36:25;0.88;;;0.50;;
11998;SDS011;40817;51.520;9.954;2023-11-19T02:38:52;0.57;;;0.35;;
11998;SDS011;40817;51.520;9.954;2023-11-19T02:41:20;0.40;;;0.30;;
11998;SDS011;40817;51.520;9.954;2023-11-19T02:43:47;0.45;;;0.45;;
11998;SDS011;40817;51.520;9.954;2023-11-19T02:46:16;0.20;;;0.20;;
11998;SDS011;40817;51.520;9.954;2023-11-19T02:48:44;0.30;;;0.30;;
11998;SDS011;40817;51.520;9.954;2023-11-19T02:51:11;0.65;;;0.30;;
11998;SDS011;40817;51.520;9.954;2023-11-19T02:53:39;0.45;;;0.35;;
11998;SDS011;40817;51.520;9.954;2023-11-19T02:56:06;0.40;;;0.40;;
11998;SDS011;40817;51.520;9.954;2023-11-19T02:58:44;0.52;;;0.30;;
11998;SDS011;40817;51.520;9.954;2023-11-19T03:01:13;0.60;;;0.40;;
11998;SDS011;40817;51.520;9.954;2023-11-19T03:03:54;0.55;;;0.40;;
11998;SDS011;40817;51.520;9.954;2023-11-19T03:06:22;0.90;;;0.45;;
11998;SDS011;40817;51.520;9.954;2023-11-19T03:08:49;0.65;;;0.45;;
11998;SDS011;40817;51.520;9.954;2023-11-19T03:11:16;0.88;;;0.40;;
11998;SDS011;40817;51.520;9.954;2023-11-19T03:13:43;0.93;;;0.43;;
11998;SDS011;40817;51.520;9.954;2023-11-19T03:16:11;0.50;;;0.40;;
11998;SDS011;40817;51.520;9.954;2023-11-19T03:18:40;0.93;;;0.40;;
11998;SDS011;40817;51.520;9.954;2023-11-19T03:21:08;0.85;;;0.30;;
11998;SDS011;40817;51.520;9.954;2023-11-19T03:23:35;0.90;;;0.50;;
11998;SDS011;40817;51.520;9.954;2023-11-19T03:26:05;0.68;;;0.50;;
11998;SDS011;40817;51.520;9.954;2023-11-19T03:28:33;2.85;;;0.50;;
11998;SDS011;40817;51.520;9.954;2023-11-19T03:31:00;1.02;;;0.50;;
11998;SDS011;40817;51.520;9.954;2023-11-19T03:33:33;1.58;;;0.90;;
11998;SDS011;40817;51.520;9.954;2023-11-19T03:36:01;1.10;;;0.70;;
11998;SDS011;40817;51.520;9.954;2023-11-19T03:38:30;1.17;;;0.60;;
11998;SDS011;40817;51.520;9.954;2023-11-19T03:40:57;0.60;;;0.43;;
11998;SDS011;40817;51.520;9.954;2023-11-19T03:43:24;1.23;;;0.55;;
11998;SDS011;40817;51.520;9.954;2023-11-19T03:45:52;0.70;;;0.52;;
11998;SDS011;40817;51.520;9.954;2023-11-19T03:48:19;0.77;;;0.50;;
11998;SDS011;40817;51.520;9.954;2023-11-19T03:50:47;1.20;;;0.57;;
11998;SDS011;40817;51.520;9.954;2023-11-19T03:53:16;1.90;;;0.60;;
11998;SDS011;40817;51.520;9.954;2023-11-19T03:55:44;1.27;;;0.70;;
11998;SDS011;40817;51.520;9.954;2023-11-19T03:58:11;0.90;;;0.50;;
11998;SDS011;40817;51.520;9.954;2023-11-19T04:00:39;0.90;;;0.52;;
11998;SDS011;40817;51.520;9.954;2023-11-19T04:03:06;0.98;;;0.57;;
11998;SDS011;40817;51.520;9.954;2023-11-19T04:05:33;2.72;;;0.70;;
11998;SDS011;40817;51.520;9.954;2023-11-19T04:08:00;1.60;;;0.50;;
11998;SDS011;40817;51.520;9.954;2023-11-19T04:10:29;0.85;;;0.52;;
11998;SDS011;40817;51.520;9.954;2023-11-19T04:12:56;1.55;;;0.50;;
11998;SDS011;40817;51.520;9.954;2023-11-19T04:15:23;2.25;;;0.47;;
11998;SDS011;40817;51.520;9.954;2023-11-19T04:17:51;1.65;;;0.65;;
11998;SDS011;40817;51.520;9.954;2023-11-19T04:20:18;0.82;;;0.40;;
11998;SDS011;40817;51.520;9.954;2023-11-19T04:22:45;0.77;;;0.57;;
11998;SDS011;40817;51.520;9.954;2023-11-19T04:25:12;1.15;;;0.50;;
11998;SDS011;40817;51.520;9.954;2023-11-19T04:27:42;0.80;;;0.50;;
11998;SDS011;40817;51.520;9.954;2023-11-19T04:30:10;1.10;;;0.50;;
11998;SDS011;40817;51.520;9.954;2023-11-19T04:32:38;1.73;;;0.50;;
11998;SDS011;40817;51.520;9.954;2023-11-19T04:35:06;0.65;;;0.40;;
11998;SDS011;40817;51.520;9.954;2023-11-19T04:37:35;0.50;;;0.40;;
11998;SDS011;40817;51.520;9.954;2023-11-19T04:40:03;0.77;;;0.50;;
11998;SDS011;40817;51.520;9.954;2023-11-19T04:42:32;0.90;;;0.50;;
11998;SDS011;40817;51.520;9.954;2023-11-19T04:45:01;0.77;;;0.52;;
11998;SDS011;40817;51.520;9.954;2023-11-19T04:47:31;0.68;;;0.50;;
11998;SDS011;40817;51.520;9.954;2023-11-19T04:49:58;0.60;;;0.40;;
11998;SDS011;40817;51.520;9.954;2023-11-19T04:52:25;0.60;;;0.40;;
11998;SDS011;40817;51.520;9.954;2023-11-19T04:54:53;0.88;;;0.50;;
11998;SDS011;40817;51.520;9.954;2023-11-19T04:57:20;0.82;;;0.47;;
11998;SDS011;40817;51.520;9.954;2023-11-19T04:59:47;0.90;;;0.47;;
11998;SDS011;40817;51.520;9.954;2023-11-19T05:02:16;0.43;;;0.38;;
11998;SDS011;40817;51.520;9.954;2023-11-19T05:04:43;0.82;;;0.57;;
11998;SDS011;40817;51.520;9.954;2023-11-19T05:07:11;0.57;;;0.50;;
11998;SDS011;40817;51.520;9.954;2023-11-19T05:09:39;2.03;;;0.60;;
11998;SDS011;40817;51.520;9.954;2023-11-19T05:12:08;1.30;;;0.70;;
11998;SDS011;40817;51.520;9.954;2023-11-19T05:14:38;1.33;;;0.80;;
11998;SDS011;40817;51.520;9.954;2023-11-19T05:17:05;0.80;;;0.60;;
11998;SDS011;40817;51.520;9.954;2023-11-19T05:19:34;1.10;;;0.85;;
11998;SDS011;40817;51.520;9.954;2023-11-19T05:22:01;0.65;;;0.52;;
11998;SDS011;40817;51.520;9.954;2023-11-19T05:24:28;1.25;;;0.70;;
11998;SDS011;40817;51.520;9.954;2023-11-19T05:26:57;2.78;;;0.88;;
11998;SDS011;40817;51.520;9.954;2023-11-19T05:29:25;2.45;;;0.90;;
11998;SDS011;40817;51.520;9.954;2023-11-19T05:31:52;1.40;;;0.88;;
11998;SDS011;40817;51.520;9.954;2023-11-19T05:34:20;1.15;;;0.70;;
11998;SDS011;40817;51.520;9.954;2023-11-19T05:36:49;1.35;;;0.90;;
11998;SDS011;40817;51.520;9.954;2023-11-19T05:39:16;2.05;;;0.82;;
11998;SDS011;40817;51.520;9.954;2023-11-19T05:41:45;2.10;;;1.17;;
11998;SDS011;40817;51.520;9.954;2023-11-19T05:44:12;1.63;;;0.80;;
11998;SDS011;40817;51.520;9.954;2023-11-19T05:46:39;1.90;;;0.85;;
11998;SDS011;40817;51.520;9.954;2023-11-19T05:49:08;1.23;;;0.82;;
11998;SDS011;40817;51.520;9.954;2023-11-19T05:51:36;2.88;;;0.90;;
11998;SDS011;40817;51.520;9.954;2023-11-19T05:54:06;2.45;;;1.02;;
11998;SDS011;40817;51.520;9.954;2023-11-19T05:56:33;1.30;;;0.75;;
11998;SDS011;40817;51.520;9.954;2023-11-19T05:59:01;1.45;;;0.90;;
11998;SDS011;40817;51.520;9.954;2023-11-19T06:01:32;2.55;;;0.60;;
11998;SDS011;40817;51.520;9.954;2023-11-19T06:04:00;1.90;;;0.70;;
11998;SDS011;40817;51.520;9.954;2023-11-19T06:06:28;1.30;;;0.90;;
11998;SDS011;40817;51.520;9.954;2023-11-19T06:08:55;1.30;;;0.80;;
11998;SDS011;40817;51.520;9.954;2023-11-19T06:11:24;0.73;;;0.60;;
11998;SDS011;40817;51.520;9.954;2023-11-19T06:13:52;3.40;;;0.80;;
11998;SDS011;40817;51.520;9.954;2023-11-19T06:16:19;1.42;;;0.68;;
11998;SDS011;40817;51.520;9.954;2023-11-19T06:18:47;1.27;;;0.80;;
11998;SDS011;40817;51.520;9.954;2023-11-19T06:21:14;4.18;;;0.98;;
11998;SDS011;40817;51.520;9.954;2023-11-19T06:23:41;5.78;;;0.85;;
11998;SDS011;40817;51.520;9.954;2023-11-19T06:26:08;1.90;;;1.20;;
11998;SDS011;40817;51.520;9.954;2023-11-19T06:28:37;1.98;;;1.25;;
11998;SDS011;40817;51.520;9.954;2023-11-19T06:31:05;1.98;;;1.00;;
11998;SDS011;40817;51.520;9.954;2023-11-19T06:33:32;1.75;;;0.70;;
11998;SDS011;40817;51.520;9.954;2023-11-19T06:35:59;1.65;;;1.00;;
11998;SDS011;40817;51.520;9.954;2023-11-19T06:38:27;2.72;;;1.10;;
11998;SDS011;40817;51.520;9.954;2023-11-19T06:40:54;3.65;;;0.95;;
11998;SDS011;40817;51.520;9.954;2023-11-19T06:43:21;1.92;;;0.93;;
11998;SDS011;40817;51.520;9.954;2023-11-19T06:45:50;2.75;;;1.00;;
11998;SDS011;40817;51.520;9.954;2023-11-19T06:48:18;2.53;;;1.27;;
11998;SDS011;40817;51.520;9.954;2023-11-19T06:50:45;3.22;;;1.42;;
11998;SDS011;40817;51.520;9.954;2023-11-19T06:53:12;5.28;;;1.30;;
11998;SDS011;40817;51.520;9.954;2023-11-19T06:55:39;1.60;;;0.90;;
11998;SDS011;40817;51.520;9.954;2023-11-19T06:58:07;4.00;;;1.50;;
11998;SDS011;40817;51.520;9.954;2023-11-19T07:00:34;2.83;;;1.10;;
11998;SDS011;40817;51.520;9.954;2023-11-19T07:03:03;2.05;;;1.10;;
11998;SDS011;40817;51.520;9.954;2023-11-19T07:05:35;2.30;;;1.60;;
11998;SDS011;40817;51.520;9.954;2023-11-19T07:08:03;4.90;;;1.83;;
11998;SDS011;40817;51.520;9.954;2023-11-19T07:10:32;3.08;;;1.27;;
11998;SDS011;40817;51.520;9.954;2023-11-19T07:12:59;2.60;;;1.10;;
11998;SDS011;40817;51.520;9.954;2023-11-19T07:15:30;2.72;;;1.80;;
11998;SDS011;40817;51.520;9.954;2023-11-19T07:17:58;2.85;;;1.45;;
11998;SDS011;40817;51.520;9.954;2023-11-19T07:20:27;2.10;;;1.50;;
11998;SDS011;40817;51.520;9.954;2023-11-19T07:22:54;3.17;;;1.48;;
11998;SDS011;40817;51.520;9.954;2023-11-19T07:25:22;2.67;;;1.33;;
11998;SDS011;40817;51.520;9.954;2023-11-19T07:27:50;3.30;;;1.40;;
11998;SDS011;40817;51.520;9.954;2023-11-19T07:30:18;3.90;;;1.38;;
11998;SDS011;40817;51.520;9.954;2023-11-19T07:32:46;3.03;;;1.40;;
11998;SDS011;40817;51.520;9.954;2023-11-19T07:35:13;3.35;;;1.70;;
11998;SDS011;40817;51.520;9.954;2023-11-19T07:37:42;3.00;;;1.30;;
11998;SDS011;40817;51.520;9.954;2023-11-19T07:40:11;2.30;;;1.40;;
11998;SDS011;40817;51.520;9.954;2023-11-19T07:42:39;5.50;;;1.23;;
11998;SDS011;40817;51.520;9.954;2023-11-19T07:45:06;2.75;;;1.20;;
11998;SDS011;40817;51.520;9.954;2023-11-19T07:47:35;5.32;;;1.30;;
11998;SDS011;40817;51.520;9.954;2023-11-19T07:50:03;2.95;;;1.45;;
11998;SDS011;40817;51.520;9.954;2023-11-19T07:52:32;4.28;;;1.13;;
11998;SDS011;40817;51.520;9.954;2023-11-19T07:55:01;6.35;;;1.65;;
11998;SDS011;40817;51.520;9.954;2023-11-19T07:57:30;5.18;;;1.73;;
11998;SDS011;40817;51.520;9.954;2023-11-19T07:59:57;4.25;;;1.60;;
11998;SDS011;40817;51.520;9.954;2023-11-19T08:02:26;4.03;;;2.00;;
11998;SDS011;40817;51.520;9.954;2023-11-19T08:04:53;4.30;;;1.35;;
11998;SDS011;40817;51.520;9.954;2023-11-19T08:07:21;2.53;;;1.33;;
11998;SDS011;40817;51.520;9.954;2023-11-19T08:09:48;6.63;;;1.50;;
11998;SDS011;40817;51.520;9.954;2023-11-19T08:12:17;4.95;;;2.00;;
11998;SDS011;40817;51.520;9.954;2023-11-19T08:14:44;5.95;;;2.00;;
11998;SDS011;40817;51.520;9.954;2023-11-19T08:17:11;3.85;;;1.95;;
11998;SDS011;40817;51.520;9.954;2023-11-19T08:19:38;3.60;;;1.83;;
11998;SDS011;40817;51.520;9.954;2023-11-19T08:22:06;5.95;;;1.50;;
11998;SDS011;40817;51.520;9.954;2023-11-19T08:24:35;4.95;;;1.70;;
11998;SDS011;40817;51.520;9.954;2023-11-19T08:27:02;7.55;;;2.13;;
11998;SDS011;40817;51.520;9.954;2023-11-19T08:29:31;3.38;;;1.50;;
11998;SDS011;40817;51.520;9.954;2023-11-19T08:31:59;4.70;;;1.60;;
11998;SDS011;40817;51.520;9.954;2023-11-19T08:34:28;6.38;;;2.13;;
11998;SDS011;40817;51.520;9.954;2023-11-19T08:36:56;3.60;;;1.63;;
11998;SDS011;40817;51.520;9.954;2023-11-19T08:39:23;5.45;;;2.60;;
11998;SDS011;40817;51.520;9.954;2023-11-19T08:41:50;6.72;;;2.20;;
11998;SDS011;40817;51.520;9.954;2023-11-19T08:44:17;7.55;;;2.22;;
11998;SDS011;40817;51.520;9.954;2023-11-19T08:46:49;5.05;;;2.55;;
11998;SDS011;40817;51.520;9.954;2023-11-19T08:49:16;7.63;;;2.00;;
11998;SDS011;40817;51.520;9.954;2023-11-19T08:51:44;9.02;;;1.55;;
11998;SDS011;40817;51.520;9.954;2023-11-19T08:54:11;6.18;;;1.90;;
11998;SDS011;40817;51.520;9.954;2023-11-19T08:56:39;7.97;;;1.67;;
11998;SDS011;40817;51.520;9.954;2023-11-19T08:59:06;6.78;;;1.48;;
11998;SDS011;40817;51.520;9.954;2023-11-19T09:01:33;4.93;;;1.80;;
11998;SDS011;40817;51.520;9.954;2023-11-19T09:04:02;9.57;;;2.33;;
11998;SDS011;40817;51.520;9.954;2023-11-19T09:06:31;6.57;;;1.83;;
11998;SDS011;40817;51.520;9.954;2023-11-19T09:08:58;8.55;;;1.88;;
11998;SDS011;40817;51.520;9.954;2023-11-19T09:11:27;6.82;;;1.63;;
11998;SDS011;40817;51.520;9.954;2023-11-19T09:13:55;7.22;;;2.42;;
11998;SDS011;40817;51.520;9.954;2023-11-19T09:16:22;8.45;;;1.83;;
11998;SDS011;40817;51.520;9.954;2023-11-19T09:18:50;6.50;;;2.10;;
11998;SDS011;40817;51.520;9.954;2023-11-19T09:21:19;8.98;;;1.77;;
11998;SDS011;40817;51.520;9.954;2023-11-19T09:23:46;6.90;;;1.63;;
11998;SDS011;40817;51.520;9.954;2023-11-19T09:26:14;6.40;;;2.22;;
11998;SDS011;40817;51.520;9.954;2023-11-19T09:28:41;8.00;;;2.15;;
11998;SDS011;40817;51.520;9.954;2023-11-19T09:31:15;10.02;;;2.00;;
11998;SDS011;40817;51.520;9.954;2023-11-19T09:33:43;7.25;;;1.88;;
11998;SDS011;40817;51.520;9.954;2023-11-19T09:36:11;9.90;;;1.83;;
11998;SDS011;40817;51.520;9.954;2023-11-19T09:38:41;9.00;;;2.10;;
11998;SDS011;40817;51.520;9.954;2023-11-19T09:41:09;9.30;;;2.17;;
11998;SDS011;40817;51.520;9.954;2023-11-19T09:43:38;9.23;;;2.35;;
11998;SDS011;40817;51.520;9.954;2023-11-19T09:46:07;8.70;;;2.42;;
11998;SDS011;40817;51.520;9.954;2023-11-19T09:48:37;11.57;;;1.95;;
11998;SDS011;40817;51.520;9.954;2023-11-19T09:51:06;8.88;;;2.13;;
11998;SDS011;40817;51.520;9.954;2023-11-19T09:53:34;13.70;;;2.80;;
11998;SDS011;40817;51.520;9.954;2023-11-19T09:56:04;10.70;;;2.22;;
11998;SDS011;40817;51.520;9.954;2023-11-19T09:58:34;11.88;;;2.17;;
11998;SDS011;40817;51.520;9.954;2023-11-19T10:01:01;14.50;;;2.30;;
11998;SDS011;40817;51.520;9.954;2023-11-19T10:03:32;14.82;;;2.72;;
11998;SDS011;40817;51.520;9.954;2023-11-19T10:06:03;14.75;;;2.50;;
11998;SDS011;40817;51.520;9.954;2023-11-19T10:08:32;16.80;;;2.65;;
11998;SDS011;40817;51.520;9.954;2023-11-19T10:11:00;15.98;;;4.18;;
11998;SDS011;40817;51.520;9.954;2023-11-19T10:13:29;14.68;;;2.47;;
11998;SDS011;40817;51.520;9.954;2023-11-19T10:15:56;12.13;;;2.15;;
11998;SDS011;40817;51.520;9.954;2023-11-19T10:18:24;14.57;;;2.35;;
11998;SDS011;40817;51.520;9.954;2023-11-19T10:20:52;13.80;;;2.33;;
11998;SDS011;40817;51.520;9.954;2023-11-19T10:23:21;19.85;;;3.42;;
11998;SDS011;40817;51.520;9.954;2023-11-19T10:25:48;13.27;;;3.00;;
11998;SDS011;40817;51.520;9.954;2023-11-19T10:28:19;11.65;;;2.13;;
11998;SDS011;40817;51.520;9.954;2023-11-19T10:30:47;13.63;;;2.63;;
11998;SDS011;40817;51.520;9.954;2023-11-19T10:33:15;13.95;;;2.40;;
11998;SDS011;40817;51.520;9.954;2023-11-19T10:35:51;15.95;;;2.88;;
11998;SDS011;40817;51.520;9.954;2023-11-19T10:38:21;16.27;;;2.17;;
11998;SDS011;40817;51.520;9.954;2023-11-19T10:40:49;15.60;;;3.78;;
11998;SDS011;40817;51.520;9.954;2023-11-19T10:43:18;16.63;;;3.15;;
11998;SDS011;40817;51.520;9.954;2023-11-19T10:45:48;15.65;;;2.60;;
11998;SDS011;40817;51.520;9.954;2023-11-19T10:48:17;18.15;;;2.97;;
11998;SDS011;40817;51.520;9.954;2023-11-19T10:50:46;18.02;;;3.45;;
11998;SDS011;40817;51.520;9.954;2023-11-19T10:53:20;18.98;;;3.00;;
11998;SDS011;40817;51.520;9.954;2023-11-19T10:55:51;16.23;;;2.80;;
11998;SDS011;40817;51.520;9.954;2023-11-19T10:58:20;12.00;;;2.88;;
11998;SDS011;40817;51.520;9.954;2023-11-19T11:00:50;14.57;;;3.40;;
11998;SDS011;40817;51.520;9.954;2023-11-19T11:03:24;13.48;;;2.78;;
11998;SDS011;40817;51.520;9.954;2023-11-19T11:05:56;14.70;;;2.35;;
11998;SDS011;40817;51.520;9.954;2023-11-19T11:08:23;15.77;;;2.85;;
11998;SDS011;40817;51.520;9.954;2023-11-19T11:10:52;17.58;;;2.72;;
11998;SDS011;40817;51.520;9.954;2023-11-19T11:13:22;15.68;;;3.45;;
11998;SDS011;40817;51.520;9.954;2023-11-19T11:15:54;16.02;;;2.83;;
11998;SDS011;40817;51.520;9.954;2023-11-19T11:18:23;13.25;;;2.80;;
11998;SDS011;40817;51.520;9.954;2023-11-19T11:20:52;17.67;;;3.38;;
11998;SDS011;40817;51.520;9.954;2023-11-19T11:26:53;17.25;;;2.97;;
11998;SDS011;40817;51.520;9.954;2023-11-19T11:29:56;12.48;;;2.80;;
11998;SDS011;40817;51.520;9.954;2023-11-19T11:32:42;16.35;;;3.38;;
11998;SDS011;40817;51.520;9.954;2023-11-19T11:35:24;23.77;;;4.20;;
11998;SDS011;40817;51.520;9.954;2023-11-19T11:38:07;23.10;;;3.55;;
11998;SDS011;40817;51.520;9.954;2023-11-19T11:40:35;14.88;;;3.10;;
11998;SDS011;40817;51.520;9.954;2023-11-19T11:43:02;13.38;;;2.95;;
11998;SDS011;40817;51.520;9.954;2023-11-19T11:45:36;13.07;;;2.60;;
11998;SDS011;40817;51.520;9.954;2023-11-19T11:48:12;15.68;;;3.42;;
11998;SDS011;40817;51.520;9.954;2023-11-19T11:50:52;13.90;;;3.63;;
11998;SDS011;40817;51.520;9.954;2023-11-19T11:53:24;15.05;;;2.88;;
11998;SDS011;40817;51.520;9.954;2023-11-19T11:55:56;15.00;;;2.78;;
11998;SDS011;40817;51.520;9.954;2023-11-19T11:58:31;14.20;;;2.42;;
11998;SDS011;40817;51.520;9.954;2023-11-19T12:01:02;17.85;;;3.72;;
11998;SDS011;40817;51.520;9.954;2023-11-19T12:03:36;13.82;;;2.67;;
11998;SDS011;40817;51.520;9.954;2023-11-19T12:06:04;21.40;;;3.75;;
11998;SDS011;40817;51.520;9.954;2023-11-19T12:08:33;17.35;;;3.13;;
11998;SDS011;40817;51.520;9.954;2023-11-19T12:11:01;12.23;;;2.90;;
11998;SDS011;40817;51.520;9.954;2023-11-19T12:13:42;14.75;;;3.45;;
11998;SDS011;40817;51.520;9.954;2023-11-19T12:16:27;16.83;;;3.33;;
11998;SDS011;40817;51.520;9.954;2023-11-19T12:18:57;13.77;;;2.75;;
11998;SDS011;40817;51.520;9.954;2023-11-19T12:21:31;17.85;;;3.20;;
11998;SDS011;40817;51.520;9.954;2023-11-19T12:23:58;16.25;;;3.15;;
11998;SDS011;40817;51.520;9.954;2023-11-19T12:26:38;15.63;;;2.70;;
11998;SDS011;40817;51.520;9.954;2023-11-19T12:29:06;15.18;;;3.13;;
11998;SDS011;40817;51.520;9.954;2023-11-19T12:31:33;14.23;;;3.58;;
11998;SDS011;40817;51.520;9.954;2023-11-19T12:34:11;12.85;;;3.13;;
11998;SDS011;40817;51.520;9.954;2023-11-19T12:36:38;17.15;;;3.08;;
11998;SDS011;40817;51.520;9.954;2023-11-19T12:39:09;17.88;;;2.95;;
11998;SDS011;40817;51.520;9.954;2023-11-19T12:41:49;17.67;;;3.00;;
11998;SDS011;40817;51.520;9.954;2023-11-19T12:44:19;16.05;;;3.08;;
11998;SDS011;40817;51.520;9.954;2023-11-19T12:46:58;11.70;;;3.40;;
11998;SDS011;40817;51.520;9.954;2023-11-19T12:49:29;16.33;;;3.63;;
11998;SDS011;40817;51.520;9.954;2023-11-19T12:51:57;10.25;;;2.70;;
11998;SDS011;40817;51.520;9.954;2023-11-19T12:54:34;13.48;;;2.75;;
11998;SDS011;40817;51.520;9.954;2023-11-19T12:57:02;12.50;;;3.08;;
11998;SDS011;40817;51.520;9.954;2023-11-19T12:59:31;13.85;;;3.30;;
11998;SDS011;40817;51.520;9.954;2023-11-19T13:01:58;17.75;;;3.00;;
11998;SDS011;40817;51.520;9.954;2023-11-19T13:04:28;12.05;;;2.75;;
11998;SDS011;40817;51.520;9.954;2023-11-19T13:06:57;15.57;;;3.38;;
11998;SDS011;40817;51.520;9.954;2023-11-19T13:09:25;19.05;;;2.72;;
11998;SDS011;40817;51.520;9.954;2023-11-19T13:11:53;22.08;;;2.92;;
11998;SDS011;40817;51.520;9.954;2023-11-19T13:14:22;13.65;;;3.42;;
11998;SDS011;40817;51.520;9.954;2023-11-19T13:16:49;15.45;;;3.40;;
11998;SDS011;40817;51.520;9.954;2023-11-19T13:19:19;11.88;;;2.80;;
11998;SDS011;40817;51.520;9.954;2023-11-19T13:21:50;18.00;;;3.95;;
11998;SDS011;40817;51.520;9.954;2023-11-19T13:24:17;15.20;;;2.92;;
11998;SDS011;40817;51.520;9.954;2023-11-19T13:26:44;20.67;;;3.15;;
11998;SDS011;40817;51.520;9.954;2023-11-19T13:29:11;11.00;;;2.90;;
11998;SDS011;40817;51.520;9.954;2023-11-19T13:31:39;14.07;;;2.60;;
11998;SDS011;40817;51.520;9.954;2023-11-19T13:34:06;14.57;;;2.92;;
11998;SDS011;40817;51.520;9.954;2023-11-19T13:36:34;12.95;;;3.30;;
11998;SDS011;40817;51.520;9.954;2023-11-19T13:39:02;16.50;;;3.70;;
11998;SDS011;40817;51.520;9.954;2023-11-19T13:41:30;14.27;;;3.20;;
11998;SDS011;40817;51.520;9.954;2023-11-19T13:43:57;20.00;;;2.97;;
11998;SDS011;40817;51.520;9.954;2023-11-19T13:46:25;17.52;;;3.63;;
11998;SDS011;40817;51.520;9.954;2023-11-19T13:48:52;11.63;;;2.85;;
11998;SDS011;40817;51.520;9.954;2023-11-19T13:51:19;12.52;;;2.40;;
11998;SDS011;40817;51.520;9.954;2023-11-19T13:53:46;10.70;;;2.55;;
11998;SDS011;40817;51.520;9.954;2023-11-19T13:56:15;19.40;;;3.08;;
11998;SDS011;40817;51.520;9.954;2023-11-19T13:58:43;14.88;;;3.03;;
11998;SDS011;40817;51.520;9.954;2023-11-19T14:01:11;16.77;;;3.55;;
11998;SDS011;40817;51.520;9.954;2023-11-19T14:03:39;19.73;;;4.50;;
11998;SDS011;40817;51.520;9.954;2023-11-19T14:06:07;18.10;;;4.13;;
11998;SDS011;40817;51.520;9.954;2023-11-19T14:08:35;11.38;;;3.22;;
11998;SDS011;40817;51.520;9.954;2023-11-19T14:11:02;15.38;;;3.42;;
11998;SDS011;40817;51.520;9.954;2023-11-19T14:13:33;14.25;;;3.20;;
11998;SDS011;40817;51.520;9.954;2023-11-19T14:16:00;13.05;;;3.22;;
11998;SDS011;40817;51.520;9.954;2023-11-19T14:18:28;15.10;;;3.20;;
11998;SDS011;40817;51.520;9.954;2023-11-19T14:20:55;13.70;;;2.83;;
11998;SDS011;40817;51.520;9.954;2023-11-19T14:23:24;14.23;;;3.10;;
11998;SDS011;40817;51.520;9.954;2023-11-19T14:25:52;15.18;;;3.97;;
11998;SDS011;40817;51.520;9.954;2023-11-19T14:28:20;12.57;;;2.95;;
11998;SDS011;40817;51.520;9.954;2023-11-19T14:30:49;21.63;;;3.13;;
11998;SDS011;40817;51.520;9.954;2023-11-19T14:33:21;11.07;;;3.05;;
11998;SDS011;40817;51.520;9.954;2023-11-19T14:35:49;15.73;;;3.40;;
11998;SDS011;40817;51.520;9.954;2023-11-19T14:38:17;14.32;;;2.80;;
11998;SDS011;40817;51.520;9.954;2023-11-19T14:40:44;12.80;;;2.58;;
11998;SDS011;40817;51.520;9.954;2023-11-19T14:43:11;13.63;;;2.60;;
11998;SDS011;40817;51.520;9.954;2023-11-19T14:45:40;10.77;;;2.53;;
11998;SDS011;40817;51.520;9.954;2023-11-19T14:48:10;17.00;;;2.63;;
11998;SDS011;40817;51.520;9.954;2023-11-19T14:50:37;12.13;;;2.63;;
11998;SDS011;40817;51.520;9.954;2023-11-19T14:53:04;15.60;;;3.33;;
11998;SDS011;40817;51.520;9.954;2023-11-19T14:55:32;9.80;;;2.33;;